createdAt,value
2023-08-16T00:04:16.400Z,6.10
2023-08-16T00:09:26.973Z,6.00
2023-08-16T00:14:36.723Z,6.60
2023-08-16T00:19:46.822Z,6.70
2023-08-16T00:24:56.912Z,6.10
2023-08-16T00:30:07.966Z,6.60
2023-08-16T00:35:17.683Z,5.70
2023-08-16T00:40:28.133Z,6.00
2023-08-16T00:45:38.220Z,6.70
2023-08-16T00:50:48.766Z,6.20
2023-08-16T00:55:58.465Z,6.30
2023-08-16T01:01:08.567Z,5.20
2023-08-16T01:06:18.193Z,5.90
2023-08-16T01:11:36.753Z,5.90
2023-08-16T01:16:49.736Z,6.50
2023-08-16T01:22:23.101Z,6.30
2023-08-16T01:27:34.925Z,6.40
2023-08-16T01:32:44.778Z,5.90
2023-08-16T01:37:54.475Z,6.60
2023-08-16T01:43:08.602Z,6.30
2023-08-16T01:48:18.690Z,6.20
2023-08-16T01:53:28.948Z,5.10
2023-08-16T01:58:38.803Z,5.70
2023-08-16T02:03:48.341Z,5.40
2023-08-16T02:08:58.127Z,5.50
2023-08-16T02:14:07.923Z,5.10
2023-08-16T02:19:17.725Z,5.50
2023-08-16T02:24:27.329Z,5.50
2023-08-16T02:29:37.058Z,6.60
2023-08-16T02:34:46.565Z,5.80
2023-08-16T02:39:56.285Z,6.10
2023-08-16T02:45:06.117Z,5.50
2023-08-16T02:50:15.916Z,6.40
2023-08-16T02:55:25.395Z,5.50
2023-08-16T03:00:35.266Z,6.30
2023-08-16T03:05:45.019Z,6.20
2023-08-16T03:10:55.794Z,6.30
2023-08-16T03:16:05.583Z,6.10
2023-08-16T03:21:15.227Z,5.80
2023-08-16T03:26:25.081Z,6.60
2023-08-16T03:31:35.101Z,9.30
2023-08-16T03:36:44.746Z,5.50
2023-08-16T03:41:54.254Z,6.50
2023-08-16T03:47:05.386Z,6.60
2023-08-16T03:52:15.153Z,6.40
2023-08-16T03:57:26.185Z,8.20
2023-08-16T04:02:36.490Z,6.70
2023-08-16T04:07:46.326Z,7.20
2023-08-16T04:12:56.062Z,8.20
2023-08-16T04:18:06.151Z,6.90
2023-08-16T04:23:16.445Z,6.80
2023-08-16T04:28:26.112Z,7.00
2023-08-16T04:33:35.662Z,7.70
2023-08-16T04:38:45.407Z,6.50
2023-08-16T04:43:54.915Z,6.40
2023-08-16T04:49:04.608Z,6.40
2023-08-16T04:54:14.243Z,6.60
2023-08-16T04:59:23.823Z,5.90
2023-08-16T05:04:33.569Z,6.50
2023-08-16T05:09:43.185Z,6.10
2023-08-16T05:14:52.922Z,6.80
2023-08-16T05:20:02.535Z,6.20
2023-08-16T05:25:13.647Z,6.80
2023-08-16T05:30:23.537Z,5.70
2023-08-16T05:35:36.659Z,6.20
2023-08-16T05:40:46.230Z,6.90
2023-08-16T05:45:56.741Z,6.90
2023-08-16T05:51:06.306Z,7.20
2023-08-16T05:56:16.572Z,7.90
2023-08-16T06:01:28.944Z,7.10
2023-08-16T06:06:39.113Z,7.10
2023-08-16T06:11:48.798Z,6.90
2023-08-16T06:16:58.577Z,6.80
2023-08-16T06:22:08.382Z,6.80
2023-08-16T06:27:21.795Z,7.10
2023-08-16T06:32:32.082Z,6.60
2023-08-16T06:37:42.777Z,7.60
2023-08-16T06:42:52.411Z,6.60
2023-08-16T06:48:04.935Z,6.70
2023-08-16T06:53:17.777Z,6.10
2023-08-16T06:58:30.465Z,6.70
2023-08-16T07:03:41.070Z,6.80
2023-08-16T07:08:52.570Z,6.80
2023-08-16T07:14:02.867Z,6.80
2023-08-16T07:19:12.772Z,6.40
2023-08-16T07:24:22.622Z,6.80
2023-08-16T07:29:32.225Z,6.50
2023-08-16T07:34:43.533Z,5.70
2023-08-16T07:39:53.125Z,10.50
2023-08-16T07:45:04.041Z,6.10
2023-08-16T07:50:14.971Z,5.70
2023-08-16T07:55:30.664Z,6.30
2023-08-16T08:00:40.712Z,6.00
2023-08-16T08:05:51.736Z,6.00
2023-08-16T08:11:01.508Z,5.60
2023-08-16T08:16:12.768Z,6.10
2023-08-16T08:21:22.349Z,6.20
2023-08-16T08:26:32.112Z,5.70
2023-08-16T08:31:41.763Z,5.40
2023-08-16T08:36:51.444Z,6.00
2023-08-16T08:42:01.443Z,6.10
2023-08-16T08:47:17.347Z,6.10
2023-08-16T08:52:28.018Z,6.00
2023-08-16T08:57:39.595Z,5.70
2023-08-16T09:02:50.428Z,6.30
2023-08-16T09:08:00.718Z,6.10
2023-08-16T09:13:12.405Z,5.70
2023-08-16T09:18:25.380Z,5.70
2023-08-16T09:23:38.522Z,6.10
2023-08-16T09:28:48.416Z,6.80
2023-08-16T09:34:00.945Z,6.60
2023-08-16T09:39:12.701Z,6.70
2023-08-16T09:44:23.205Z,5.90
2023-08-16T09:49:34.927Z,6.10
2023-08-16T09:54:44.840Z,6.30
2023-08-16T09:59:54.940Z,6.50
2023-08-16T10:05:08.374Z,5.50
2023-08-16T10:10:18.553Z,5.50
2023-08-16T10:15:30.964Z,6.00
2023-08-16T10:20:48.477Z,5.80
2023-08-16T10:26:03.082Z,5.90
2023-08-16T10:31:14.986Z,4.90
2023-08-16T10:36:25.975Z,5.20
2023-08-16T10:41:45.131Z,5.10
2023-08-16T10:46:55.166Z,5.30
2023-08-16T10:52:07.590Z,5.70
2023-08-16T10:57:26.209Z,6.10
2023-08-16T11:02:41.501Z,5.70
2023-08-16T11:07:51.679Z,5.30
2023-08-16T11:13:01.801Z,5.50
2023-08-16T11:18:15.734Z,5.70
2023-08-16T11:23:31.923Z,6.30
2023-08-16T11:28:45.205Z,5.20
2023-08-16T11:33:55.827Z,5.70
2023-08-16T11:39:10.082Z,6.00
2023-08-16T11:44:20.675Z,5.20
2023-08-16T11:49:33.330Z,5.30
2023-08-16T11:54:49.133Z,6.20
2023-08-16T12:00:07.188Z,5.80
2023-08-16T12:05:37.924Z,6.00
2023-08-16T12:10:59.741Z,6.20
2023-08-16T12:16:14.478Z,5.90
2023-08-16T12:21:25.205Z,5.50
2023-08-16T12:26:34.914Z,5.30
2023-08-16T12:31:44.775Z,5.70
2023-08-16T12:36:54.788Z,5.80
2023-08-16T12:42:05.542Z,5.10
2023-08-16T12:47:16.222Z,5.00
2023-08-16T12:52:26.082Z,6.00
2023-08-16T13:02:57.403Z,6.10
2023-08-16T13:08:08.470Z,5.10
2023-08-16T13:13:30.818Z,5.70
2023-08-16T13:24:08.277Z,5.60
2023-08-16T13:29:26.849Z,6.60
2023-08-16T13:50:21.917Z,6.10
2023-08-16T13:55:32.133Z,5.60
2023-08-16T14:00:41.854Z,5.90
2023-08-16T14:05:55.991Z,5.50
2023-08-16T14:11:08.411Z,4.80
2023-08-16T14:16:17.982Z,5.10
2023-08-16T14:21:27.857Z,5.80
2023-08-16T14:26:38.008Z,4.90
2023-08-16T14:31:48.378Z,5.50
2023-08-16T14:36:58.312Z,5.40
2023-08-16T14:42:08.533Z,5.80
2023-08-16T14:47:18.555Z,6.80
2023-08-16T14:52:28.306Z,5.80
2023-08-16T14:57:38.738Z,6.70
2023-08-16T15:02:49.024Z,5.90
2023-08-16T15:07:59.606Z,5.10
2023-08-16T15:13:09.448Z,6.20
2023-08-16T15:18:19.259Z,5.70
2023-08-16T15:23:29.125Z,4.90
2023-08-16T15:28:46.949Z,5.90
2023-08-16T15:33:57.093Z,6.50
2023-08-16T15:39:08.693Z,7.60
2023-08-16T15:44:19.527Z,5.00
2023-08-16T15:49:29.331Z,6.70
2023-08-16T15:54:41.727Z,7.40
2023-08-16T15:59:52.781Z,7.00
2023-08-16T16:05:03.333Z,6.70
2023-08-16T16:10:14.598Z,6.10
2023-08-16T16:15:26.542Z,5.30
2023-08-16T16:20:36.638Z,5.40
2023-08-16T16:25:46.342Z,4.40
2023-08-16T16:30:56.033Z,5.10
2023-08-16T16:36:06.728Z,4.60
2023-08-16T16:41:16.178Z,4.40
2023-08-16T16:46:25.841Z,3.70
2023-08-16T16:51:35.585Z,4.00
2023-08-16T16:56:45.301Z,3.80
2023-08-16T17:01:55.525Z,3.40
2023-08-16T17:07:06.953Z,3.30
2023-08-16T17:12:18.537Z,3.60
2023-08-16T17:17:28.578Z,2.90
2023-08-16T17:22:39.328Z,3.20
2023-08-16T17:27:49.542Z,3.20
2023-08-16T17:32:59.498Z,2.70
2023-08-16T17:38:09.442Z,2.90
2023-08-16T17:43:19.439Z,3.10
2023-08-16T17:48:29.595Z,3.10
2023-08-16T17:53:39.362Z,3.10
2023-08-16T17:58:49.441Z,3.00
2023-08-16T18:03:59.610Z,3.00
2023-08-16T18:09:09.633Z,2.90
2023-08-16T18:14:19.345Z,2.30
2023-08-16T18:19:29.101Z,2.30
2023-08-16T18:24:39.016Z,2.60
2023-08-16T18:29:48.813Z,2.40
2023-08-16T18:34:59.683Z,2.10
2023-08-16T18:40:14.118Z,2.30
2023-08-16T18:45:24.567Z,1.90
2023-08-16T18:50:37.433Z,2.20
2023-08-16T18:55:49.947Z,2.40
2023-08-16T19:01:01.634Z,2.00
2023-08-16T19:06:15.582Z,2.30
2023-08-16T19:11:31.005Z,2.20
2023-08-16T19:16:43.462Z,1.90
2023-08-16T19:21:55.028Z,1.90
2023-08-16T19:27:06.642Z,2.20
2023-08-16T19:32:16.287Z,2.50
2023-08-16T19:37:26.383Z,2.40
2023-08-16T19:42:36.749Z,2.30
2023-08-16T19:47:46.387Z,1.80
2023-08-16T19:52:57.244Z,2.30
2023-08-16T19:58:07.578Z,2.50
2023-08-16T20:03:17.302Z,2.30
2023-08-16T20:08:27.822Z,2.20
2023-08-16T20:13:37.598Z,2.60
2023-08-16T20:18:47.348Z,2.70
2023-08-16T20:23:58.059Z,2.50
2023-08-16T20:29:11.412Z,2.80
2023-08-16T20:34:36.693Z,2.30
2023-08-16T20:39:47.049Z,3.10
2023-08-16T20:44:57.728Z,3.00
2023-08-16T20:50:08.743Z,3.10
2023-08-16T20:55:19.041Z,2.70
2023-08-16T21:00:36.571Z,2.90
2023-08-16T21:05:57.640Z,3.70
2023-08-16T21:11:21.296Z,3.30
2023-08-16T21:16:34.618Z,3.00
2023-08-16T21:21:44.972Z,3.20
2023-08-16T21:26:57.314Z,3.00
2023-08-16T21:32:08.286Z,3.30
2023-08-16T21:37:20.266Z,3.40
2023-08-16T21:42:32.167Z,3.50
2023-08-16T21:47:44.291Z,2.90
2023-08-16T21:52:56.188Z,3.20
2023-08-16T21:58:07.629Z,3.10
2023-08-16T22:03:18.730Z,2.90
2023-08-16T22:08:29.995Z,3.20
2023-08-16T22:13:42.371Z,2.90
2023-08-16T22:18:52.795Z,3.00
2023-08-16T22:24:02.609Z,3.10
2023-08-16T22:29:13.874Z,3.80
2023-08-16T22:34:23.599Z,3.90
2023-08-16T22:39:33.728Z,2.80
2023-08-16T22:44:43.526Z,2.80
2023-08-16T22:49:53.180Z,3.60
2023-08-16T22:55:03.171Z,3.90
2023-08-16T23:00:15.473Z,3.50
2023-08-16T23:05:25.582Z,2.90
2023-08-16T23:10:35.618Z,3.80
2023-08-16T23:15:45.403Z,3.70
2023-08-16T23:20:54.902Z,3.00
2023-08-16T23:26:04.844Z,3.40
2023-08-16T23:31:14.616Z,3.20
2023-08-16T23:36:24.459Z,3.40
2023-08-16T23:41:34.070Z,2.90
2023-08-16T23:46:44.113Z,3.00
2023-08-16T23:51:53.997Z,3.10
2023-08-16T23:57:04.660Z,3.10
